Time;durP1;ratioP1;P1;durP2;ratioP2;P2;SDS_P1;SDS_P2;PMS_P1;PMS_P2;Temp;Humidity;BMP_temperature;BMP_pressure;BME280_temperature;BME280_humidity;BME280_pressure;Samples;Min_cycle;Max_cycle;Signal;HPM_P1;HPM_P2
2023/10/06 00:01:21;;;;;;;1999.90;999.90;;;;;;;16.02;66.58;100840.66;5005076;28;20045;-94
2023/10/06 00:03:48;;;;;;;1999.90;999.90;;;;;;;15.90;66.78;100841.75;5005326;28;20033;-96
2023/10/06 00:06:22;;;;;;;1999.90;999.90;;;;;;;15.86;67.42;100840.66;5005241;28;20025;-94
2023/10/06 00:08:51;;;;;;;1999.90;999.90;;;;;;;15.72;67.35;100837.63;5010214;28;20030;-93
2023/10/06 00:11:31;;;;;;;1999.90;999.90;;;;;;;15.45;68.33;100830.41;5009251;28;20072;-93
2023/10/06 00:14:00;;;;;;;1999.90;999.90;;;;;;;15.81;67.69;100844.22;5005892;28;20091;-93
2023/10/06 00:16:38;;;;;;;1999.90;999.90;;;;;;;16.03;67.02;100840.38;5005670;28;20061;-94
2023/10/06 00:19:21;;;;;;;1999.90;999.90;;;;;;;15.64;68.19;100845.28;4988007;28;20041;-93
2023/10/06 00:21:50;;;;;;;1999.90;999.90;;;;;;;15.70;67.84;100842.56;4995326;28;20509;-93
2023/10/06 00:24:23;;;;;;;1999.90;999.90;;;;;;;15.76;67.56;100845.03;5005091;28;20041;-93
2023/10/06 00:26:49;;;;;;;1999.90;999.90;;;;;;;15.78;67.49;100838.44;5005238;28;20030;-93
2023/10/06 00:29:21;;;;;;;1999.90;999.90;;;;;;;16.03;66.37;100845.09;5005554;28;20041;-93
2023/10/06 00:31:47;;;;;;;1999.90;999.90;;;;;;;15.76;67.50;100836.78;5005298;28;20103;-93
2023/10/06 00:34:19;;;;;;;1999.90;999.90;;;;;;;15.87;66.88;100836.78;5003310;28;20054;-92
2023/10/06 00:36:51;;;;;;;1999.90;999.90;;;;;;;15.68;67.63;100837.31;5004623;28;20062;-92
2023/10/06 00:39:17;;;;;;;1999.90;999.90;;;;;;;15.52;68.25;100830.97;5005174;28;20085;-92
2023/10/06 00:41:44;;;;;;;1999.90;999.90;;;;;;;15.68;68.18;100844.75;5004745;28;20103;-93
2023/10/06 00:44:09;;;;;;;1999.90;999.90;;;;;;;15.69;67.91;100840.91;5005012;28;20517;-93
2023/10/06 00:46:34;;;;;;;1999.90;999.90;;;;;;;15.60;68.58;100833.19;5005413;28;20070;-92
2023/10/06 00:49:04;;;;;;;1999.90;999.90;;;;;;;15.74;68.00;100832.66;5004930;28;20129;-93
2023/10/06 00:51:30;;;;;;;1999.90;999.90;;;;;;;15.74;67.49;100827.97;5004849;28;20046;-93
2023/10/06 00:53:56;;;;;;;1999.90;999.90;;;;;;;15.73;67.91;100831.84;5004797;28;20042;-92
2023/10/06 00:56:23;;;;;;;1999.90;999.90;;;;;;;15.38;68.98;100833.41;5005018;28;20036;-92
2023/10/06 00:58:49;;;;;;;1999.90;999.90;;;;;;;15.47;68.96;100831.81;5005189;28;20128;-92
2023/10/06 01:01:17;;;;;;;1999.90;999.90;;;;;;;15.52;68.56;100826.31;5004990;28;20121;-93
2023/10/06 01:03:44;;;;;;;1999.90;999.90;;;;;;;15.34;69.15;100835.06;5008771;28;20883;-93
2023/10/06 01:06:14;;;;;;;1999.90;999.90;;;;;;;15.42;68.87;100837.28;5007547;28;20034;-93
2023/10/06 01:08:54;;;;;;;1999.90;999.90;;;;;;;15.64;68.11;100825.25;5007379;28;20041;-92
2023/10/06 01:11:25;;;;;;;1999.90;999.90;;;;;;;15.76;67.39;100812.03;5008433;28;20029;-92
2023/10/06 01:13:56;;;;;;;1999.90;999.90;;;;;;;15.58;68.65;100809.84;5008321;28;20038;-93
2023/10/06 01:16:30;;;;;;;1999.90;999.90;;;;;;;15.52;68.68;100806.25;5009102;28;20033;-92
2023/10/06 01:19:01;;;;;;;1999.90;999.90;;;;;;;15.71;68.01;100797.47;5008428;28;20026;-93
2023/10/06 01:21:30;;;;;;;1999.90;999.90;;;;;;;15.78;67.70;100805.44;5007988;28;20054;-92
2023/10/06 01:23:58;;;;;;;1999.90;999.90;;;;;;;15.60;68.33;100800.22;5008163;28;20132;-93
2023/10/06 01:26:24;;;;;;;1999.90;999.90;;;;;;;15.74;67.60;100795.00;5007917;28;20030;-92
2023/10/06 01:28:51;;;;;;;1999.90;999.90;;;;;;;15.61;68.55;100795.53;5008408;28;20502;-92
2023/10/06 01:31:19;;;;;;;1999.90;999.90;;;;;;;15.38;68.69;100793.03;5008622;28;20102;-92
2023/10/06 01:33:45;;;;;;;1999.90;999.90;;;;;;;15.52;69.12;100785.09;5007832;28;20111;-92
2023/10/06 01:36:13;;;;;;;1999.90;999.90;;;;;;;15.86;67.23;100791.97;5007778;28;20517;-92
2023/10/06 01:38:41;;;;;;;1999.90;999.90;;;;;;;15.74;68.08;100777.69;5008354;28;20397;-92
2023/10/06 01:41:08;;;;;;;1999.90;999.90;;;;;;;15.88;67.16;100773.25;4990286;28;20041;-92
2023/10/06 01:43:34;;;;;;;1999.90;999.90;;;;;;;15.60;68.12;100766.41;5007638;28;20518;-92
2023/10/06 01:45:59;;;;;;;1999.90;999.90;;;;;;;15.44;68.54;100774.63;5007987;28;20051;-93
2023/10/06 01:48:28;;;;;;;1999.90;999.90;;;;;;;15.55;68.21;100777.41;5008044;28;20033;-92
2023/10/06 01:50:55;;;;;;;1999.90;999.90;;;;;;;15.50;68.14;100779.03;5008161;28;20030;-93
2023/10/06 01:53:20;;;;;;;1999.90;999.90;;;;;;;15.49;68.12;100780.16;5006875;28;20030;-93
2023/10/06 01:55:52;;;;;;;1999.90;999.90;;;;;;;15.32;69.01;100785.06;5007433;28;20398;-93
2023/10/06 01:58:17;;;;;;;1999.90;999.90;;;;;;;15.49;68.27;100782.91;5007508;28;20090;-93
2023/10/06 02:00:47;;;;;;;1999.90;999.90;;;;;;;15.44;68.32;100784.81;5008575;28;20065;-93
2023/10/06 02:03:16;;;;;;;1999.90;999.90;;;;;;;15.26;68.99;100782.31;5007171;28;20034;-92
2023/10/06 02:05:42;;;;;;;1999.90;999.90;;;;;;;15.11;69.22;100776.78;5008254;28;20038;-91
2023/10/06 02:08:11;;;;;;;1999.90;999.90;;;;;;;15.37;68.68;100774.09;5007077;28;20526;-92
2023/10/06 02:10:37;;;;;;;1999.90;999.90;;;;;;;15.39;68.36;100771.91;4989737;28;20490;-93
2023/10/06 02:13:06;;;;;;;1999.90;999.90;;;;;;;15.37;68.65;100766.69;5006397;28;20475;-93
2023/10/06 02:15:32;;;;;;;1999.90;999.90;;;;;;;15.25;69.10;100772.44;5007101;28;20477;-92
2023/10/06 02:17:57;;;;;;;1999.90;999.90;;;;;;;15.57;67.85;100773.28;4990075;28;20053;-92
2023/10/06 02:22:52;;;;;;;1999.90;999.90;;;;;;;14.99;69.35;100753.13;4987566;28;20105;-92
2023/10/06 02:25:22;;;;;;;1999.90;999.90;;;;;;;15.32;68.52;100752.09;4991498;28;20038;-92
2023/10/06 02:27:50;;;;;;;1999.90;999.90;;;;;;;15.20;68.84;100758.66;4991241;28;20328;-93
2023/10/06 02:30:15;;;;;;;1999.90;999.90;;;;;;;15.43;68.14;100758.44;4988379;28;20041;-93
2023/10/06 02:32:43;;;;;;;1999.90;999.90;;;;;;;15.50;67.81;100757.06;4987501;28;20489;-93
2023/10/06 02:35:09;;;;;;;1999.90;999.90;;;;;;;15.35;68.30;100757.06;4988180;28;20038;-92
2023/10/06 02:37:34;;;;;;;1999.90;999.90;;;;;;;15.27;68.19;100751.00;4987962;28;20034;-92
2023/10/06 02:39:59;;;;;;;1999.90;999.90;;;;;;;15.27;68.69;100747.44;4987172;28;20486;-92
2023/10/06 02:42:25;;;;;;;1999.90;999.90;;;;;;;15.27;68.13;100750.19;4987341;28;20106;-93
2023/10/06 02:44:51;;;;;;;1999.90;999.90;;;;;;;15.25;68.34;100750.47;4987089;28;20060;-92
2023/10/06 02:47:17;;;;;;;1999.90;999.90;;;;;;;15.19;68.50;100751.53;4986617;28;20063;-93
2023/10/06 02:49:54;;;;;;;1999.90;999.90;;;;;;;15.57;67.42;100758.72;4987043;28;20038;-93
2023/10/06 02:52:23;;;;;;;1999.90;999.90;;;;;;;15.47;67.49;100763.13;4987316;28;20438;-92
2023/10/06 02:57:34;;;;;;;1999.90;999.90;;;;;;;15.42;67.31;100756.78;4987297;28;20936;-92
2023/10/06 03:00:28;;;;;;;1999.90;999.90;;;;;;;15.58;67.13;100757.63;4987333;28;20042;-92
2023/10/06 03:02:45;;;;;;;1999.90;999.90;;;;;;;15.33;67.64;100757.34;4986622;28;20120;-92
2023/10/06 03:05:30;;;;;;;1999.90;999.90;;;;;;;15.27;67.60;100755.66;4987216;28;20038;-92
2023/10/06 03:07:55;;;;;;;1999.90;999.90;;;;;;;15.55;67.12;100756.25;4986525;28;20038;-92
2023/10/06 03:10:26;;;;;;;1999.90;999.90;;;;;;;15.35;66.99;100754.31;4968805;28;20034;-92
2023/10/06 03:12:52;;;;;;;1999.90;999.90;;;;;;;15.24;67.76;100747.97;4986681;28;20277;-93
2023/10/06 03:15:36;;;;;;;1999.90;999.90;;;;;;;15.16;67.74;100752.91;4986736;28;20417;-91
2023/10/06 03:18:04;;;;;;;1999.90;999.90;;;;;;;15.40;67.42;100744.13;4987116;28;20034;-92
2023/10/06 03:20:40;;;;;;;1999.90;999.90;;;;;;;15.35;67.40;100757.06;4987412;28;20050;-92
2023/10/06 03:23:23;;;;;;;1999.90;999.90;;;;;;;15.29;67.58;100754.28;5006138;28;20053;-92
2023/10/06 03:25:52;;;;;;;1999.90;999.90;;;;;;;15.44;67.25;100760.91;5006254;28;20428;-92
2023/10/06 03:28:18;;;;;;;1999.90;999.90;;;;;;;15.51;66.69;100755.97;4988944;28;20038;-92
2023/10/06 03:30:44;;;;;;;1999.90;999.90;;;;;;;15.55;66.69;100761.75;4988179;28;20026;-92
2023/10/06 03:33:12;;;;;;;1999.90;999.90;;;;;;;15.48;66.85;100761.16;5005232;28;20036;-92
2023/10/06 03:35:45;;;;;;;1999.90;999.90;;;;;;;15.56;66.46;100763.38;5006318;28;20033;-92
2023/10/06 03:40:48;;;;;;;1999.90;999.90;;;;;;;15.25;67.25;100761.44;5005729;28;20103;-92
2023/10/06 03:43:13;;;;;;;1999.90;999.90;;;;;;;15.34;67.05;100758.13;5005894;28;20069;-92
2023/10/06 03:45:45;;;;;;;1999.90;999.90;;;;;;;15.40;66.85;100768.03;5006012;28;20060;-92
2023/10/06 03:50:39;;;;;;;1999.90;999.90;;;;;;;15.50;66.95;100761.72;5005979;28;20646;-92
2023/10/06 03:53:08;;;;;;;1999.90;999.90;;;;;;;15.43;66.62;100764.75;5005517;28;20033;-91
2023/10/06 03:55:45;;;;;;;1999.90;999.90;;;;;;;15.46;66.35;100766.94;5006176;28;20040;-92
2023/10/06 03:58:13;;;;;;;1999.90;999.90;;;;;;;15.40;66.51;100757.03;5006014;28;20093;-93
2023/10/06 04:00:40;;;;;;;1999.90;999.90;;;;;;;15.46;66.47;100766.94;4988608;28;20037;-90
2023/10/06 04:03:09;;;;;;;1999.90;999.90;;;;;;;15.39;66.68;100755.41;5011076;28;20041;-90
2023/10/06 04:05:37;;;;;;;1999.90;999.90;;;;;;;15.28;67.35;100758.13;5005326;28;20425;-91
2023/10/06 04:08:15;;;;;;;1999.90;999.90;;;;;;;15.25;66.78;100753.19;5005105;28;20378;-90
2023/10/06 04:10:42;;;;;;;1999.90;999.90;;;;;;;15.20;67.39;100744.94;5005487;28;20041;-90
2023/10/06 04:13:11;;;;;;;1999.90;999.90;;;;;;;14.98;67.90;100746.00;5005055;28;20141;-90
2023/10/06 04:15:48;;;;;;;1999.90;999.90;;;;;;;15.07;67.68;100742.72;5005552;28;20068;-90
2023/10/06 04:18:16;;;;;;;1999.90;999.90;;;;;;;15.14;67.25;100746.84;5012431;28;20500;-90
2023/10/06 04:20:42;;;;;;;1999.90;999.90;;;;;;;15.04;67.46;100749.56;5005072;28;20041;-91
2023/10/06 04:23:09;;;;;;;1999.90;999.90;;;;;;;14.74;68.37;100749.19;5004769;28;20041;-90
2023/10/06 04:25:37;;;;;;;1999.90;999.90;;;;;;;14.75;68.71;100742.59;5005353;28;20064;-91
2023/10/06 04:28:08;;;;;;;1999.90;999.90;;;;;;;14.88;68.34;100738.56;5005651;28;20421;-91
2023/10/06 04:30:37;;;;;;;1999.90;999.90;;;;;;;14.90;68.22;100738.28;5005323;28;20844;-91
2023/10/06 04:33:05;;;;;;;1999.90;999.90;;;;;;;14.92;68.13;100734.19;5004730;28;20042;-90
2023/10/06 04:35:32;;;;;;;1999.90;999.90;;;;;;;14.58;68.94;100720.88;5005250;28;20030;-90
2023/10/06 04:38:01;;;;;;;1999.90;999.90;;;;;;;14.60;69.22;100726.91;5008326;28;20065;-91
2023/10/06 04:40:27;;;;;;;1999.90;999.90;;;;;;;14.54;69.39;100717.81;5009949;28;20045;-91
2023/10/06 04:42:53;;;;;;;1999.90;999.90;;;;;;;14.64;69.32;100719.81;5012257;28;20027;-90
2023/10/06 04:45:18;;;;;;;1999.90;999.90;;;;;;;14.65;69.02;100726.09;5013149;28;20041;-91
2023/10/06 04:47:43;;;;;;;1999.90;999.90;;;;;;;14.64;68.97;100713.47;5010005;28;20034;-90
2023/10/06 04:50:09;;;;;;;1999.90;999.90;;;;;;;14.54;69.03;100720.56;5009288;28;20092;-90
2023/10/06 04:52:39;;;;;;;1999.90;999.90;;;;;;;14.59;69.26;100715.09;4991103;28;20280;-91
2023/10/06 04:55:10;;;;;;;1999.90;999.90;;;;;;;14.61;69.21;100708.50;5008932;28;20038;-90
2023/10/06 04:57:35;;;;;;;835.28;134.38;;;;;;;14.82;68.37;100703.94;5008550;28;20343;-91
2023/10/06 05:00:00;;;;;;;1999.90;999.90;;;;;;;14.96;67.74;100704.25;5008465;28;20044;-90
2023/10/06 05:02:25;;;;;;;1999.90;999.90;;;;;;;14.96;68.00;100700.69;4991143;28;20128;-90
2023/10/06 05:04:53;;;;;;;1999.90;999.90;;;;;;;14.55;69.29;100711.25;4991036;28;20420;-91
2023/10/06 05:07:19;;;;;;;1999.90;999.90;;;;;;;14.64;69.04;100708.00;5008578;28;20337;-90
2023/10/06 05:09:44;;;;;;;1999.90;999.90;;;;;;;14.63;68.34;100717.31;5008192;28;20494;-91
2023/10/06 05:12:11;;;;;;;1999.90;999.90;;;;;;;14.62;68.93;100701.94;5008477;28;20568;-94
2023/10/06 05:14:38;;;;;;;1999.90;999.90;;;;;;;14.72;68.83;100693.75;5008470;28;20046;-96
2023/10/06 05:17:04;;;;;;;1999.90;999.90;;;;;;;14.57;68.48;100694.50;5007896;28;20394;-95
2023/10/06 05:19:29;;;;;;;1999.90;999.90;;;;;;;14.53;68.68;100691.47;4991178;28;20041;-94
2023/10/06 05:21:55;;;;;;;1999.90;999.90;;;;;;;14.79;68.60;100683.31;5009223;28;20061;-96
2023/10/06 05:24:20;;;;;;;1999.90;999.90;;;;;;;14.63;68.86;100687.13;4990874;28;20192;-94
2023/10/06 05:26:46;;;;;;;1999.90;999.90;;;;;;;14.67;68.40;100685.47;5008465;28;20042;-96
2023/10/06 05:29:14;;;;;;;1999.90;999.90;;;;;;;14.76;68.35;100661.09;5008344;28;20267;-95
2023/10/06 05:31:39;;;;;;;1999.90;999.90;;;;;;;14.66;68.81;100673.69;5008681;28;20069;-96
2023/10/06 05:34:07;;;;;;;1999.90;999.90;;;;;;;14.75;68.43;100676.72;5008405;28;20080;-95
2023/10/06 05:36:33;;;;;;;1999.90;999.90;;;;;;;14.75;68.70;100676.72;5008097;28;20037;-95
2023/10/06 05:38:59;;;;;;;1639.45;770.05;;;;;;;14.66;68.70;100679.19;5007992;28;20038;-95
2023/10/06 05:41:34;;;;;;;1999.90;999.90;;;;;;;14.69;67.98;100686.03;5007798;28;20092;-95
2023/10/06 05:43:59;;;;;;;1999.90;999.90;;;;;;;14.70;68.91;100685.78;4989001;28;20049;-95
2023/10/06 05:46:24;;;;;;;1999.90;999.90;;;;;;;14.87;67.79;100684.75;4989614;28;20041;-96
2023/10/06 05:48:51;;;;;;;1999.90;999.90;;;;;;;14.75;68.16;100690.44;5007883;28;20125;-95
2023/10/06 05:51:21;;;;;;;1999.90;999.90;;;;;;;14.63;68.41;100700.84;5007025;28;20061;-96
2023/10/06 05:53:48;;;;;;;1999.90;999.90;;;;;;;14.85;68.24;100691.63;5007635;28;20029;-95
2023/10/06 05:56:15;;;;;;;1999.90;999.90;;;;;;;14.81;68.22;100694.84;5006944;28;20056;-95
2023/10/06 05:58:43;;;;;;;1999.90;999.90;;;;;;;14.72;68.50;100696.50;5007483;28;20069;-96
2023/10/06 06:01:18;;;;;;;1999.90;999.90;;;;;;;14.72;68.50;100693.75;5013735;28;20046;-96
2023/10/06 06:03:45;;;;;;;1999.90;999.90;;;;;;;14.91;67.61;100707.81;5006969;28;20037;-95
2023/10/06 06:06:10;;;;;;;1999.90;999.90;;;;;;;14.61;68.49;100708.50;5006977;28;20914;-96
2023/10/06 06:08:39;;;;;;;1999.90;999.90;;;;;;;14.81;68.21;100702.25;5006501;28;20042;-95
2023/10/06 06:11:05;;;;;;;1999.90;999.90;;;;;;;14.77;68.38;100701.97;4989751;28;20038;-95
2023/10/06 06:13:31;;;;;;;1999.90;999.90;;;;;;;14.84;68.01;100699.03;5007901;28;20042;-96
2023/10/06 06:15:56;;;;;;;1999.90;999.90;;;;;;;14.80;68.08;100711.59;5007152;28;20029;-95
2023/10/06 06:18:25;;;;;;;1999.90;999.90;;;;;;;14.64;68.75;100711.56;4989301;28;20033;-95
2023/10/06 06:20:50;;;;;;;1999.90;999.90;;;;;;;14.91;67.56;100706.97;5007014;28;20209;-94
2023/10/06 06:23:15;;;;;;;1999.90;999.90;;;;;;;14.85;68.04;100722.63;5006660;28;20041;-94
2023/10/06 06:25:42;;;;;;;1999.90;999.90;;;;;;;14.76;68.41;100727.78;5007604;28;20053;-94
2023/10/06 06:28:12;;;;;;;1999.90;999.90;;;;;;;15.12;67.43;100723.50;5006874;28;20129;-93
2023/10/06 06:30:39;;;;;;;1999.90;999.90;;;;;;;15.00;67.88;100732.81;5006755;28;20088;-93
2023/10/06 06:33:05;;;;;;;1999.90;999.90;;;;;;;15.00;67.76;100737.47;4988883;28;20042;-94
2023/10/06 06:35:32;;;;;;;1999.90;999.90;;;;;;;14.97;67.88;100738.84;5007101;28;20453;-95
2023/10/06 06:38:01;;;;;;;1999.90;999.90;;;;;;;15.18;67.65;100738.88;5007052;28;20044;-94
2023/10/06 06:40:30;;;;;;;1999.90;999.90;;;;;;;15.16;67.43;100741.09;5007921;28;20509;-94
2023/10/06 06:42:57;;;;;;;1999.90;999.90;;;;;;;15.04;67.83;100733.94;4989297;28;20540;-93
2023/10/06 06:45:25;;;;;;;1999.90;999.90;;;;;;;15.19;67.62;100746.06;5007153;28;20037;-94
2023/10/06 06:47:52;;;;;;;1999.90;999.90;;;;;;;15.09;67.87;100757.00;5007674;28;20038;-94
2023/10/06 06:50:18;;;;;;;1999.90;999.90;;;;;;;15.41;67.06;100753.22;5007655;28;20037;-94
2023/10/06 06:52:51;;;;;;;1999.90;999.90;;;;;;;15.22;67.25;100744.66;5008196;28;20501;-93
2023/10/06 06:55:17;;;;;;;1999.90;999.90;;;;;;;15.34;67.19;100750.72;5007211;28;20037;-94
2023/10/06 06:57:49;;;;;;;1999.90;999.90;;;;;;;15.21;67.12;100745.78;5008017;28;20478;-95
2023/10/06 07:00:21;;;;;;;1999.90;999.90;;;;;;;15.26;67.27;100748.50;5006933;28;20081;-94
2023/10/06 07:02:48;;;;;;;1999.90;999.90;;;;;;;15.34;67.03;100747.97;5010552;28;20084;-93
2023/10/06 07:05:15;;;;;;;1999.90;999.90;;;;;;;15.48;66.62;100742.75;5010558;28;20030;-94
2023/10/06 07:07:43;;;;;;;1999.90;999.90;;;;;;;15.58;66.82;100741.13;5006915;28;20474;-93
2023/10/06 07:10:12;;;;;;;1999.90;999.90;;;;;;;15.43;66.59;100742.78;5006515;28;20080;-93
2023/10/06 07:12:37;;;;;;;1999.90;999.90;;;;;;;15.43;67.08;100740.03;5007100;28;20049;-93
2023/10/06 07:15:03;;;;;;;1999.90;999.90;;;;;;;15.52;66.15;100732.88;5006775;28;20030;-94
2023/10/06 07:17:28;;;;;;;1999.90;999.90;;;;;;;15.55;66.60;100727.94;4988529;28;20038;-94
2023/10/06 07:19:53;;;;;;;1999.90;999.90;;;;;;;15.62;66.54;100709.25;5006669;28;20550;-93
2023/10/06 07:22:22;;;;;;;1999.90;999.90;;;;;;;15.75;65.87;100714.19;5005566;28;20835;-94
2023/10/06 07:24:50;;;;;;;1999.90;999.90;;;;;;;15.76;66.13;100720.50;5005932;28;20504;-95
2023/10/06 07:27:15;;;;;;;1999.90;999.90;;;;;;;15.83;65.80;100717.47;5006172;28;20033;-94
2023/10/06 07:29:40;;;;;;;1999.90;999.90;;;;;;;15.72;65.88;100725.72;5005831;28;20046;-95
2023/10/06 07:32:06;;;;;;;1999.90;999.90;;;;;;;15.37;66.37;100725.47;5005722;28;20042;-93
2023/10/06 07:34:32;;;;;;;1999.90;999.90;;;;;;;15.51;66.08;100720.25;5006492;28;20267;-93
2023/10/06 07:36:58;;;;;;;1999.90;999.90;;;;;;;15.54;66.14;100720.81;5006184;28;20076;-93
2023/10/06 07:39:23;;;;;;;1999.90;999.90;;;;;;;15.76;65.98;100718.56;4987620;28;20054;-92
2023/10/06 07:41:48;;;;;;;1999.90;999.90;;;;;;;15.88;65.84;100722.97;5005885;28;20036;-92
2023/10/06 07:44:14;;;;;;;1999.90;999.90;;;;;;;15.86;65.78;100719.66;5005302;28;20259;-92
2023/10/06 07:46:40;;;;;;;1999.90;999.90;;;;;;;15.97;65.28;100721.28;5005908;28;20045;-92
2023/10/06 07:49:06;;;;;;;1999.90;999.90;;;;;;;15.85;65.33;100718.00;5005375;28;20160;-92
2023/10/06 07:51:33;;;;;;;1999.90;999.90;;;;;;;15.80;66.16;100720.78;5012891;28;20180;-92
2023/10/06 07:53:59;;;;;;;1999.90;999.90;;;;;;;15.88;65.69;100710.03;5004974;28;20048;-92
2023/10/06 07:56:26;;;;;;;1999.90;999.90;;;;;;;15.81;65.68;100705.91;5005408;28;20038;-94
2023/10/06 07:58:53;;;;;;;1999.90;999.90;;;;;;;15.71;65.78;100702.09;5006189;28;20026;-93
2023/10/06 08:01:19;;;;;;;1999.90;999.90;;;;;;;15.86;65.71;100697.69;5005668;28;20533;-93
2023/10/06 08:03:45;;;;;;;1999.90;999.90;;;;;;;15.82;65.29;100702.91;5005217;28;20511;-93
2023/10/06 08:06:11;;;;;;;1999.90;999.90;;;;;;;15.86;65.53;100719.66;5004852;28;20040;-93
2023/10/06 08:08:38;;;;;;;1999.90;999.90;;;;;;;15.84;64.85;100716.38;5011892;28;20034;-93
2023/10/06 08:11:05;;;;;;;1999.90;999.90;;;;;;;15.94;64.88;100710.03;5005255;28;20329;-93
2023/10/06 08:13:31;;;;;;;1999.90;999.90;;;;;;;16.01;64.89;100707.00;5011632;28;20282;-92
2023/10/06 08:16:00;;;;;;;1999.90;999.90;;;;;;;15.79;65.28;100703.44;5005260;28;20026;-93
2023/10/06 08:18:30;;;;;;;1999.90;999.90;;;;;;;15.74;65.27;100709.78;5005293;28;20033;-93
2023/10/06 08:21:03;;;;;;;1999.90;999.90;;;;;;;15.88;64.98;100717.47;5005432;28;20177;-93
2023/10/06 08:23:29;;;;;;;1999.90;999.90;;;;;;;15.54;66.30;100726.28;5005184;28;20038;-93
2023/10/06 08:25:56;;;;;;;1999.90;999.90;;;;;;;15.74;65.30;100723.50;5006278;28;20038;-94
2023/10/06 08:28:24;;;;;;;1999.90;999.90;;;;;;;16.08;65.02;100722.13;5006058;28;20042;-92
2023/10/06 08:30:49;;;;;;;1999.90;999.90;;;;;;;16.14;65.20;100725.69;4988130;28;20030;-93
2023/10/06 08:33:15;;;;;;;1999.90;999.90;;;;;;;16.48;64.13;100731.63;5005844;28;20129;-92
2023/10/06 08:35:40;;;;;;;1999.90;999.90;;;;;;;16.48;64.68;100726.13;5006061;28;20128;-92
2023/10/06 08:38:07;;;;;;;1999.90;999.90;;;;;;;16.33;64.37;100733.34;5005530;28;20034;-92
2023/10/06 08:40:36;;;;;;;1999.90;999.90;;;;;;;16.38;64.17;100733.31;4989878;28;20010;-90
2023/10/06 08:43:02;;;;;;;1999.90;999.90;;;;;;;16.33;64.09;100738.84;5004774;28;20046;-89
2023/10/06 08:45:28;;;;;;;1999.90;999.90;;;;;;;16.40;64.40;100735.78;5005184;28;20485;-90
2023/10/06 08:47:59;;;;;;;1999.90;999.90;;;;;;;16.45;64.16;100735.78;5005518;28;20045;-89
2023/10/06 08:50:31;;;;;;;1999.90;999.90;;;;;;;16.26;65.18;100732.81;5004659;28;20077;-89
2023/10/06 08:52:58;;;;;;;1999.90;999.90;;;;;;;16.29;64.06;100740.50;5011228;28;20484;-90
2023/10/06 08:55:25;;;;;;;1999.90;999.90;;;;;;;16.26;64.75;100743.81;5005113;28;20044;-89
2023/10/06 08:57:52;;;;;;;1999.90;999.90;;;;;;;16.18;64.84;100746.03;4988123;28;20030;-90
2023/10/06 09:00:19;;;;;;;1999.90;999.90;;;;;;;16.34;64.63;100735.81;5005107;28;20034;-89
2023/10/06 09:02:46;;;;;;;1999.90;999.90;;;;;;;16.40;64.48;100728.34;5002606;28;20128;-90
2023/10/06 09:05:12;;;;;;;1999.90;999.90;;;;;;;16.41;64.45;100732.78;5005277;28;20481;-90
2023/10/06 09:07:37;;;;;;;1999.90;999.90;;;;;;;16.47;64.59;100741.00;5004385;28;20280;-89
2023/10/06 09:10:19;;;;;;;1999.90;999.90;;;;;;;16.52;64.23;100736.28;5004729;28;20061;-89
2023/10/06 09:12:57;;;;;;;1999.90;999.90;;;;;;;16.65;64.06;100732.13;5004167;28;20038;-90
2023/10/06 09:15:22;;;;;;;1999.90;999.90;;;;;;;16.73;63.87;100735.38;5004895;28;20034;-90
2023/10/06 09:17:47;;;;;;;1999.90;999.90;;;;;;;16.60;64.46;100726.63;5004739;28;20038;-89
2023/10/06 09:20:13;;;;;;;1999.90;999.90;;;;;;;16.68;63.85;100726.03;4987277;28;20751;-90
2023/10/06 09:22:48;;;;;;;1999.90;999.90;;;;;;;16.56;64.03;100725.53;5005078;28;20422;-87
2023/10/06 09:25:14;;;;;;;1999.90;999.90;;;;;;;16.58;64.18;100731.59;5019238;28;20037;-88
2023/10/06 09:27:41;;;;;;;1999.90;999.90;;;;;;;16.64;64.52;100724.94;5011301;28;20025;-88
2023/10/06 09:30:10;;;;;;;1999.90;999.90;;;;;;;16.96;64.04;100724.78;5009048;28;20038;-88
2023/10/06 09:32:36;;;;;;;1999.90;999.90;;;;;;;16.84;63.80;100725.16;5007919;28;20382;-87
2023/10/06 09:35:24;;;;;;;1999.90;999.90;;;;;;;16.84;63.18;100725.94;5007581;28;20038;-88
2023/10/06 09:37:51;;;;;;;1999.90;999.90;;;;;;;16.80;63.66;100735.91;5008041;28;20049;-88
2023/10/06 09:40:22;;;;;;;1999.90;999.90;;;;;;;16.84;63.27;100730.66;5008038;28;20379;-88
2023/10/06 09:42:49;;;;;;;1999.90;999.90;;;;;;;16.95;63.64;100736.91;5008016;28;20037;-88
2023/10/06 09:45:18;;;;;;;1999.90;999.90;;;;;;;16.98;63.86;100734.44;5009102;28;20029;-88
2023/10/06 09:47:50;;;;;;;1999.90;999.90;;;;;;;17.25;62.94;100729.56;4990410;28;20061;-88
2023/10/06 09:50:22;;;;;;;1895.68;611.38;;;;;;;17.17;62.68;100725.50;5008249;28;20038;-93
2023/10/06 09:52:49;;;;;;;1999.90;999.90;;;;;;;17.20;63.26;100718.59;5008542;28;20068;-93
2023/10/06 09:55:21;;;;;;;1999.90;999.90;;;;;;;17.05;63.50;100717.56;5007905;28;20084;-93
2023/10/06 09:57:52;;;;;;;1999.90;999.90;;;;;;;17.20;62.81;100718.59;5008651;28;20120;-93
2023/10/06 10:00:19;;;;;;;1999.90;844.75;;;;;;;17.31;62.10;100711.91;5007837;28;20437;-93
2023/10/06 10:02:49;;;;;;;1999.90;999.90;;;;;;;17.43;61.97;100713.47;5007485;28;20121;-94
2023/10/06 10:05:18;;;;;;;1999.90;999.90;;;;;;;17.17;62.29;100708.19;5007933;28;20505;-93
2023/10/06 10:07:48;;;;;;;1999.90;999.90;;;;;;;17.08;62.89;100708.75;5008433;28;20034;-93
2023/10/06 10:10:15;;;;;;;1999.90;999.90;;;;;;;17.17;62.60;100700.72;5007687;28;20053;-93
2023/10/06 10:12:46;;;;;;;1999.90;999.90;;;;;;;17.14;63.14;100701.28;5007417;28;20618;-93
2023/10/06 10:15:22;;;;;;;1999.90;999.90;;;;;;;17.40;62.57;100703.84;5007350;28;20104;-94
2023/10/06 10:18:05;;;;;;;1999.90;999.90;;;;;;;17.31;61.89;100709.16;5007771;28;20065;-93
2023/10/06 10:20:32;;;;;;;1999.90;999.90;;;;;;;17.20;62.39;100699.31;5007046;28;20033;-95
2023/10/06 10:23:01;;;;;;;1999.90;999.90;;;;;;;17.46;61.85;100690.84;5007332;28;20037;-93
2023/10/06 10:25:29;;;;;;;1999.90;999.90;;;;;;;17.54;61.96;100676.44;5014557;28;20493;-93
2023/10/06 10:28:19;;;;;;;1976.53;999.90;;;;;;;17.45;61.24;100683.69;5007695;28;20136;-94
2023/10/06 10:30:56;;;;;;;1730.22;999.90;;;;;;;17.25;61.74;100685.50;4989997;28;20109;-94
2023/10/06 10:33:43;;;;;;;1179.60;999.90;;;;;;;17.32;61.31;100683.25;5007445;28;20081;-95
2023/10/06 10:36:15;;;;;;;1726.10;999.90;;;;;;;17.41;61.54;100688.94;5005102;28;20037;-94
2023/10/06 10:38:41;;;;;;;1930.60;999.90;;;;;;;17.54;61.19;100672.84;5008600;28;20476;-94
2023/10/06 10:41:08;;;;;;;1183.53;999.90;;;;;;;17.51;61.77;100677.03;5007599;28;20096;-94
2023/10/06 10:43:38;;;;;;;1055.65;968.15;;;;;;;17.66;61.69;100675.22;5006469;28;20084;-94
2023/10/06 10:46:08;;;;;;;987.30;913.33;;;;;;;17.62;61.75;100675.81;4989690;28;20132;-94
2023/10/06 10:48:37;;;;;;;1897.80;999.90;;;;;;;17.41;62.27;100685.38;4988969;28;20037;-93
2023/10/06 10:51:12;;;;;;;1999.90;999.90;;;;;;;17.76;62.02;100677.88;5006458;28;20038;-93
2023/10/06 10:53:43;;;;;;;1999.90;999.90;;;;;;;17.82;62.03;100679.47;5006518;28;20556;-94
2023/10/06 10:56:13;;;;;;;1999.90;999.90;;;;;;;17.83;62.01;100661.00;5007146;28;20120;-95
2023/10/06 10:58:42;;;;;;;1647.30;999.90;;;;;;;17.79;61.81;100666.28;4989426;28;20132;-94
2023/10/06 16:53:12;;;;;;;13.35;3.65;;;;;;;18.54;60.71;100481.00;6153280;22;1285348;-87
2023/10/06 16:55:38;;;;;;;18.25;5.13;;;;;;;18.36;60.46;100470.81;6209532;23;20059;-87